createdAt,value
2022-12-09T00:01:18.191Z,92.44
2022-12-09T00:04:05.480Z,92.51
2022-12-09T00:07:16.619Z,92.45
2022-12-09T00:30:29.073Z,92.31
2022-12-09T00:33:44.545Z,92.31
2022-12-09T00:36:48.885Z,92.17
2022-12-09T00:39:58.844Z,92.34
2022-12-09T00:42:50.205Z,92.49
2022-12-09T00:46:28.820Z,92.49
2022-12-09T00:49:20.235Z,92.66
2022-12-09T00:52:31.435Z,92.78
2022-12-09T00:55:21.639Z,92.83
2022-12-09T00:58:58.149Z,92.82
2022-12-09T01:03:01.219Z,92.80
2022-12-09T01:06:17.144Z,92.68
2022-12-09T01:09:28.074Z,92.61
2022-12-09T01:12:39.806Z,92.69
2022-12-09T01:15:50.340Z,92.69
2022-12-09T01:19:03.692Z,92.70
2022-12-09T01:23:00.584Z,92.72
2022-12-09T01:26:06.703Z,92.82
2022-12-09T01:29:20.096Z,92.81
2022-12-09T01:32:31.214Z,92.81
2022-12-09T01:35:42.507Z,92.78
2022-12-09T01:38:54.153Z,92.80
2022-12-09T01:42:17.879Z,92.83
2022-12-09T01:45:22.030Z,92.86
2022-12-09T01:48:44.848Z,92.84
2022-12-09T01:51:32.195Z,92.85
2022-12-09T01:54:44.902Z,92.80
2022-12-09T01:57:31.778Z,92.80
2022-12-09T02:00:20.907Z,92.83
2022-12-09T02:03:07.806Z,92.85
2022-12-09T02:06:10.481Z,92.87
2022-12-09T02:09:21.650Z,92.91
2022-12-09T02:12:54.658Z,92.90
2022-12-09T02:16:15.528Z,92.94
2022-12-09T02:19:05.183Z,92.84
2022-12-09T02:22:23.398Z,92.84
2022-12-09T02:25:28.317Z,92.82
2022-12-09T02:28:24.224Z,92.84
2022-12-09T02:31:35.846Z,92.87
2022-12-09T02:34:26.943Z,92.95
2022-12-09T02:37:23.075Z,92.96
2022-12-09T02:41:02.103Z,92.93
2022-12-09T02:44:14.284Z,93.04
2022-12-09T02:52:28.274Z,93.06
2022-12-09T02:55:42.235Z,93.04
2022-12-09T02:58:29.026Z,92.98
2022-12-09T03:02:06.428Z,92.94
2022-12-09T03:05:19.180Z,92.93
2022-12-09T03:08:42.183Z,92.94
2022-12-09T03:13:04.460Z,92.90
2022-12-09T03:16:19.504Z,92.92
2022-12-09T03:19:50.364Z,92.89
2022-12-09T03:23:05.741Z,92.90
2022-12-09T03:26:18.912Z,92.86
2022-12-09T03:44:45.215Z,92.85
2022-12-09T03:47:32.493Z,92.82
2022-12-09T03:50:23.279Z,92.74
2022-12-09T03:53:14.725Z,92.82
2022-12-09T03:56:14.296Z,92.88
2022-12-09T03:59:03.652Z,92.96
2022-12-09T04:01:53.758Z,93.06
2022-12-09T04:04:42.280Z,93.20
2022-12-09T04:07:29.147Z,93.20
2022-12-09T04:10:15.676Z,93.22
2022-12-09T04:13:02.535Z,93.26
2022-12-09T04:15:48.990Z,93.32
2022-12-09T04:18:35.834Z,93.22
2022-12-09T04:21:22.745Z,93.17
2022-12-09T04:24:10.144Z,93.20
2022-12-09T04:26:56.931Z,93.15
2022-12-09T04:29:43.487Z,93.14
2022-12-09T04:32:31.415Z,93.10
2022-12-09T04:35:17.907Z,93.15
2022-12-09T04:38:04.438Z,93.14
2022-12-09T04:40:50.830Z,93.08
2022-12-09T04:43:37.717Z,93.05
2022-12-09T04:46:25.382Z,92.92
2022-12-09T04:49:12.489Z,92.89
2022-12-09T04:51:58.969Z,92.95
2022-12-09T04:54:45.730Z,93.02
2022-12-09T04:57:32.614Z,92.92
2022-12-09T05:00:19.623Z,92.91
2022-12-09T05:03:06.580Z,92.90
2022-12-09T05:05:53.364Z,92.96
2022-12-09T05:08:40.801Z,93.01
2022-12-09T05:11:28.183Z,93.04
2022-12-09T05:14:16.456Z,93.03
2022-12-09T05:17:03.819Z,93.12
2022-12-09T05:19:51.380Z,93.14
2022-12-09T05:22:37.994Z,93.10
2022-12-09T05:25:25.034Z,93.10
2022-12-09T05:28:12.259Z,93.11
2022-12-09T05:31:01.819Z,93.16
2022-12-09T05:33:51.384Z,93.11
2022-12-09T05:36:38.257Z,93.12
2022-12-09T05:39:24.609Z,93.18
2022-12-09T05:42:11.668Z,93.15
2022-12-09T05:45:00.459Z,93.17
2022-12-09T05:47:47.111Z,93.10
2022-12-09T05:50:35.386Z,93.20
2022-12-09T05:53:22.026Z,93.19
2022-12-09T05:56:08.529Z,93.23
2022-12-09T05:58:56.414Z,93.23
2022-12-09T06:01:43.342Z,93.19
2022-12-09T06:04:29.955Z,93.22
2022-12-09T06:07:16.536Z,93.21
2022-12-09T06:10:04.384Z,93.20
2022-12-09T06:12:56.086Z,93.22
2022-12-09T06:15:44.663Z,93.23
2022-12-09T06:18:32.222Z,93.28
2022-12-09T06:21:20.869Z,93.31
2022-12-09T06:24:08.651Z,93.31
2022-12-09T06:34:24.699Z,93.10
2022-12-09T06:37:11.531Z,93.00
2022-12-09T06:39:58.863Z,92.92
2022-12-09T06:42:46.304Z,92.90
2022-12-09T06:45:32.652Z,92.88
2022-12-09T06:48:19.557Z,92.89
2022-12-09T06:51:08.209Z,92.97
2022-12-09T06:53:55.284Z,92.99
2022-12-09T06:56:42.545Z,93.04
2022-12-09T06:59:29.339Z,93.23
2022-12-09T07:02:16.253Z,93.41
2022-12-09T07:05:04.212Z,93.50
2022-12-09T07:08:17.402Z,93.51
2022-12-09T07:11:22.671Z,93.65
2022-12-09T07:14:39.287Z,93.56
2022-12-09T07:17:43.957Z,93.79
2022-12-09T07:20:32.004Z,93.84
2022-12-09T07:23:19.046Z,93.52
2022-12-09T07:26:08.709Z,93.72
2022-12-09T07:29:06.532Z,93.59
2022-12-09T07:31:53.445Z,93.25
2022-12-09T07:34:51.848Z,92.85
2022-12-09T07:38:03.042Z,92.44
2022-12-09T07:40:49.732Z,92.19
2022-12-09T07:43:36.859Z,92.04
2022-12-09T08:12:32.065Z,89.18
2022-12-09T08:22:20.523Z,87.29
2022-12-09T08:25:08.696Z,87.42
2022-12-09T08:27:57.826Z,87.01
2022-12-09T08:30:46.116Z,86.29
2022-12-09T08:33:34.433Z,85.59
2022-12-09T08:36:27.386Z,83.42
2022-12-09T08:39:14.844Z,82.48
2022-12-09T08:42:03.070Z,83.45
2022-12-09T08:44:51.811Z,84.29
2022-12-09T08:47:42.281Z,85.03
2022-12-09T08:50:29.837Z,85.74
2022-12-09T08:53:16.604Z,86.01
2022-12-09T08:56:47.575Z,86.82
2022-12-09T08:59:35.857Z,87.25
2022-12-09T09:02:26.616Z,87.58
2022-12-09T09:05:14.617Z,87.86
2022-12-09T09:08:25.100Z,88.05
2022-12-09T09:11:44.901Z,88.23
2022-12-09T09:14:55.548Z,88.57
2022-12-09T09:17:49.795Z,88.76
2022-12-09T09:20:52.432Z,88.75
2022-12-09T09:24:22.231Z,88.89
2022-12-09T09:28:30.448Z,88.73
2022-12-09T09:33:05.966Z,88.72
2022-12-09T09:36:10.418Z,88.79
2022-12-09T09:38:59.470Z,88.84
2022-12-09T09:41:54.462Z,88.67
2022-12-09T09:44:46.456Z,88.48
2022-12-09T09:47:48.802Z,88.48
2022-12-09T09:50:52.427Z,88.58
2022-12-09T09:53:40.499Z,88.75
2022-12-09T09:56:47.245Z,88.91
2022-12-09T09:59:34.362Z,89.08
2022-12-09T10:02:43.754Z,88.57
2022-12-09T10:05:34.466Z,88.52
2022-12-09T10:08:47.641Z,88.60
2022-12-09T10:12:06.525Z,88.83
2022-12-09T10:15:31.841Z,88.63
2022-12-09T10:18:26.116Z,88.60
2022-12-09T10:21:42.242Z,88.47
2022-12-09T10:24:39.272Z,88.36
2022-12-09T10:27:32.118Z,88.26
2022-12-09T10:31:43.777Z,88.24
2022-12-09T10:34:30.384Z,88.04
2022-12-09T10:37:33.818Z,87.99
2022-12-09T10:41:11.763Z,87.86
2022-12-09T10:44:18.890Z,87.77
2022-12-09T10:47:25.111Z,87.65
2022-12-09T10:50:29.090Z,87.35
2022-12-09T10:53:16.772Z,86.95
2022-12-09T10:56:04.212Z,86.46
2022-12-09T10:59:18.834Z,85.89
2022-12-09T11:02:08.289Z,85.62
2022-12-09T11:04:57.217Z,85.33
2022-12-09T11:07:50.504Z,85.34
2022-12-09T11:10:38.311Z,85.52
2022-12-09T11:13:36.607Z,85.55
2022-12-09T11:16:27.978Z,85.38
2022-12-09T11:19:16.010Z,85.11
2022-12-09T11:22:47.539Z,85.10
2022-12-09T11:25:36.292Z,85.26
2022-12-09T11:28:29.531Z,85.24
2022-12-09T11:31:30.271Z,85.12
2022-12-09T11:34:26.225Z,84.69
2022-12-09T11:37:12.887Z,83.71
2022-12-09T11:39:59.641Z,83.52
2022-12-09T11:42:57.103Z,83.18
2022-12-09T11:45:45.779Z,80.77
2022-12-09T11:48:40.062Z,80.12
2022-12-09T11:51:33.795Z,78.68
2022-12-09T11:54:34.880Z,78.09
2022-12-09T11:57:47.709Z,76.92
2022-12-09T12:00:39.621Z,74.46
2022-12-09T12:03:36.692Z,71.76
2022-12-09T12:06:26.376Z,68.82
2022-12-09T12:09:27.201Z,66.02
2022-12-09T12:12:35.573Z,65.27
2022-12-09T12:15:43.472Z,64.08
2022-12-09T12:18:34.466Z,60.65
2022-12-09T12:21:49.930Z,59.43
2022-12-09T12:24:55.141Z,59.14
2022-12-09T12:27:50.960Z,57.70
2022-12-09T12:30:49.371Z,56.16
2022-12-09T12:34:23.024Z,54.98
2022-12-09T12:37:53.088Z,54.28
2022-12-09T12:41:14.033Z,54.39
2022-12-09T12:44:29.028Z,55.35
2022-12-09T12:47:35.455Z,55.79
2022-12-09T12:50:38.817Z,56.55
2022-12-09T12:54:07.280Z,57.44
2022-12-09T12:57:31.697Z,57.54
2022-12-09T13:00:21.426Z,57.20
2022-12-09T13:03:27.010Z,57.94
2022-12-09T13:06:18.575Z,59.09
2022-12-09T13:09:14.901Z,59.72
2022-12-09T13:12:10.702Z,59.98
2022-12-09T13:14:57.151Z,60.88
2022-12-09T13:17:46.964Z,60.97
2022-12-09T13:20:44.411Z,62.36
2022-12-09T13:23:31.207Z,63.97
2022-12-09T13:26:36.390Z,65.24
2022-12-09T13:29:36.686Z,67.01
2022-12-09T13:33:13.565Z,68.93
2022-12-09T13:36:36.936Z,71.11
2022-12-09T13:39:42.226Z,72.63
2022-12-09T13:42:47.667Z,74.08
2022-12-09T13:45:43.223Z,75.91
2022-12-09T13:48:32.874Z,76.86
2022-12-09T14:03:07.154Z,79.93
2022-12-09T14:16:28.992Z,81.31
2022-12-09T14:19:54.261Z,81.36
2022-12-09T14:23:31.653Z,81.37
2022-12-09T14:38:11.015Z,81.98
2022-12-09T14:41:17.288Z,82.25
2022-12-09T14:44:20.986Z,82.33
2022-12-09T14:47:25.064Z,82.54
2022-12-09T14:50:29.858Z,82.75
2022-12-09T14:53:22.995Z,83.00
2022-12-09T14:57:17.549Z,83.73
2022-12-09T15:00:06.544Z,84.39
2022-12-09T15:03:23.473Z,84.86
2022-12-09T15:06:04.928Z,85.19
2022-12-09T15:08:55.370Z,85.42
2022-12-09T15:11:41.755Z,85.63
2022-12-09T15:14:32.841Z,85.72
2022-12-09T15:17:27.550Z,85.83
2022-12-09T15:20:42.235Z,85.96
2022-12-09T15:23:35.908Z,86.12
2022-12-09T15:28:21.464Z,86.33
2022-12-09T15:31:18.771Z,86.39
2022-12-09T15:34:14.462Z,86.42
2022-12-09T15:37:05.573Z,86.55
2022-12-09T15:40:19.365Z,86.73
2022-12-09T15:43:11.124Z,86.94
2022-12-09T15:46:00.010Z,87.11
2022-12-09T15:48:51.155Z,87.31
2022-12-09T15:51:41.998Z,87.46
2022-12-09T15:54:36.945Z,87.55
2022-12-09T15:57:24.104Z,87.60
2022-12-09T16:00:11.596Z,87.63
2022-12-09T16:03:00.649Z,87.65
2022-12-09T16:05:57.133Z,87.68
2022-12-09T16:08:44.710Z,87.75
2022-12-09T16:11:45.672Z,87.81
2022-12-09T16:14:44.425Z,87.90
2022-12-09T16:17:34.512Z,87.95
2022-12-09T16:20:30.341Z,88.00
2022-12-09T16:23:21.748Z,88.08
2022-12-09T16:26:18.861Z,88.12
2022-12-09T16:29:25.809Z,88.17
2022-12-09T16:32:21.628Z,88.25
2022-12-09T16:35:10.704Z,88.27
2022-12-09T16:37:57.007Z,88.32
2022-12-09T16:40:46.245Z,88.36
2022-12-09T16:43:33.923Z,88.41
2022-12-09T16:46:20.438Z,88.46
2022-12-09T16:49:08.363Z,88.48
2022-12-09T16:51:55.140Z,88.52
2022-12-09T16:54:44.477Z,88.56
2022-12-09T16:57:31.169Z,88.64
2022-12-09T17:00:18.614Z,88.72
2022-12-09T17:03:10.654Z,88.82
2022-12-09T17:05:57.172Z,88.91
2022-12-09T17:08:44.121Z,88.95
2022-12-09T17:11:30.682Z,88.98
2022-12-09T17:14:17.917Z,88.99
2022-12-09T17:17:04.851Z,89.05
2022-12-09T17:19:54.102Z,89.11
2022-12-09T17:22:40.669Z,89.17
2022-12-09T17:25:33.014Z,89.20
2022-12-09T17:28:19.390Z,89.27
2022-12-09T17:31:10.662Z,89.30
2022-12-09T17:33:57.381Z,89.34
2022-12-09T17:36:44.301Z,89.35
2022-12-09T17:39:30.992Z,89.36
2022-12-09T17:42:17.415Z,89.38
2022-12-09T17:45:05.245Z,89.36
2022-12-09T17:47:52.230Z,89.38
2022-12-09T17:50:39.414Z,89.40
2022-12-09T17:53:25.556Z,89.44
2022-12-09T17:56:19.809Z,89.46
2022-12-09T17:59:09.820Z,89.47
2022-12-09T18:01:56.312Z,89.48
2022-12-09T18:04:44.441Z,89.50
2022-12-09T18:07:30.818Z,89.48
2022-12-09T18:10:17.513Z,89.48
2022-12-09T18:13:03.801Z,89.53
2022-12-09T18:15:54.210Z,89.56
2022-12-09T18:18:42.440Z,89.58
2022-12-09T18:21:28.863Z,89.61
2022-12-09T18:24:15.115Z,89.61
2022-12-09T18:27:01.812Z,89.64
2022-12-09T18:29:48.267Z,89.61
2022-12-09T18:32:36.356Z,89.64
2022-12-09T18:35:23.850Z,89.66
2022-12-09T18:38:13.050Z,89.63
2022-12-09T18:41:01.091Z,89.58
2022-12-09T18:43:50.905Z,89.59
2022-12-09T18:46:40.079Z,89.57
2022-12-09T18:49:28.431Z,89.56
2022-12-09T18:52:14.930Z,89.59
2022-12-09T18:55:01.535Z,89.67
2022-12-09T18:57:48.037Z,89.69
2022-12-09T19:00:35.880Z,89.75
2022-12-09T19:03:24.408Z,89.81
2022-12-09T19:06:29.704Z,89.85
2022-12-09T19:09:18.709Z,89.95
2022-12-09T19:15:13.692Z,89.96
2022-12-09T19:17:59.948Z,89.94
2022-12-09T19:20:48.145Z,89.96
2022-12-09T19:23:35.918Z,89.97
2022-12-09T19:26:27.858Z,90.04
2022-12-09T19:29:15.254Z,90.12
2022-12-09T19:32:01.606Z,90.11
2022-12-09T19:34:48.156Z,90.16
2022-12-09T19:37:34.312Z,90.20
2022-12-09T19:40:20.900Z,90.24
2022-12-09T19:43:07.412Z,90.26
2022-12-09T19:45:54.629Z,90.25
2022-12-09T19:48:44.262Z,90.28
2022-12-09T19:51:30.933Z,90.34
2022-12-09T19:54:17.967Z,90.34
2022-12-09T19:57:04.589Z,90.34
2022-12-09T19:59:51.208Z,90.35
2022-12-09T20:02:38.001Z,90.38
2022-12-09T20:05:24.206Z,90.44
2022-12-09T20:08:12.895Z,90.48
2022-12-09T20:10:59.300Z,90.54
2022-12-09T20:13:46.411Z,90.58
2022-12-09T20:16:32.956Z,90.58
2022-12-09T20:19:19.788Z,90.61
2022-12-09T20:22:06.383Z,90.62
2022-12-09T20:24:53.417Z,90.61
2022-12-09T20:27:39.982Z,90.66
2022-12-09T20:30:28.749Z,90.72
2022-12-09T20:33:15.250Z,90.77
2022-12-09T20:36:09.573Z,90.82
2022-12-09T20:39:03.782Z,90.85
2022-12-09T20:41:50.404Z,90.85
2022-12-09T20:44:36.698Z,90.83
2022-12-09T20:47:23.495Z,90.87
2022-12-09T20:50:10.793Z,90.91
2022-12-09T20:52:57.582Z,90.94
2022-12-09T20:55:43.799Z,91.02
2022-12-09T20:58:30.389Z,91.06
2022-12-09T21:01:20.074Z,91.06
2022-12-09T21:04:07.412Z,91.06
2022-12-09T21:06:53.914Z,91.06
2022-12-09T21:09:40.423Z,91.00
2022-12-09T21:12:27.197Z,90.94
2022-12-09T21:15:14.249Z,90.93
2022-12-09T21:18:00.480Z,90.99
2022-12-09T21:20:47.121Z,91.02
2022-12-09T21:23:35.471Z,90.94
2022-12-09T21:26:24.021Z,90.95
2022-12-09T21:29:11.857Z,90.96
2022-12-09T21:31:58.487Z,90.99
2022-12-09T21:34:44.951Z,91.02
2022-12-09T21:37:31.506Z,90.98
2022-12-09T21:40:18.182Z,91.01
2022-12-09T21:43:05.025Z,91.00
2022-12-09T21:45:51.623Z,90.99
2022-12-09T21:48:39.975Z,90.91
2022-12-09T21:51:27.104Z,90.89
2022-12-09T21:54:13.693Z,90.91
2022-12-09T21:57:00.466Z,90.82
2022-12-09T21:59:47.405Z,90.78
2022-12-09T22:02:34.027Z,90.80
2022-12-09T22:05:20.693Z,90.74
2022-12-09T22:08:07.388Z,90.72
2022-12-09T22:10:54.125Z,90.65
2022-12-09T22:13:42.292Z,90.64
2022-12-09T22:16:34.578Z,90.57
2022-12-09T22:19:24.155Z,90.49
2022-12-09T22:22:12.839Z,90.40
2022-12-09T22:24:59.602Z,90.43
2022-12-09T22:27:46.325Z,90.37
2022-12-09T22:30:38.215Z,90.33
2022-12-09T22:33:24.956Z,90.33
2022-12-09T22:36:16.119Z,90.24
2022-12-09T22:39:05.767Z,90.23
2022-12-09T22:41:56.018Z,90.29
2022-12-09T22:44:45.603Z,90.27
2022-12-09T22:47:32.581Z,90.24
2022-12-09T22:50:19.852Z,90.34
2022-12-09T22:53:06.423Z,90.35
2022-12-09T22:55:54.639Z,90.37
2022-12-09T22:58:43.472Z,90.40
2022-12-09T23:01:35.777Z,90.43
2022-12-09T23:04:23.224Z,90.47
2022-12-09T23:07:10.194Z,90.44
2022-12-09T23:09:57.005Z,90.41
2022-12-09T23:12:43.386Z,90.35
2022-12-09T23:15:32.255Z,90.32
2022-12-09T23:18:21.387Z,90.37
2022-12-09T23:21:20.687Z,90.44
2022-12-09T23:24:11.668Z,90.40
2022-12-09T23:26:59.068Z,90.47
2022-12-09T23:29:45.854Z,90.49
2022-12-09T23:32:32.484Z,90.51
2022-12-09T23:35:19.203Z,90.53
2022-12-09T23:38:06.854Z,90.54
2022-12-09T23:40:54.093Z,90.51
2022-12-09T23:43:42.918Z,90.56
2022-12-09T23:46:32.720Z,90.60
2022-12-09T23:49:20.836Z,90.57
2022-12-09T23:52:11.048Z,90.56
2022-12-09T23:55:02.534Z,90.62
2022-12-09T23:57:50.807Z,90.61
